Time;durP1;ratioP1;P1;durP2;ratioP2;P2;SDS_P1;SDS_P2;PMS_P1;PMS_P2;Temp;Humidity;BMP_temperature;BMP_pressure;BME280_temperature;BME280_humidity;BME280_pressure;Samples;Min_cycle;Max_cycle;Signal;HPM_P1;HPM_P2
2021/09/12 00:01:23;;;;;;;27.42;20.80;;;16.00;79.60;;;;;;5034389;28;20044;-72
2021/09/12 00:03:49;;;;;;;28.17;21.98;;;16.00;79.40;;;;;;5034638;28;20371;-71
2021/09/12 00:06:15;;;;;;;28.27;20.77;;;16.00;79.40;;;;;;5036569;28;20056;-70
2021/09/12 00:08:40;;;;;;;30.85;21.23;;;16.00;80.10;;;;;;5036134;28;20036;-74
2021/09/12 00:11:06;;;;;;;30.98;22.13;;;15.90;79.50;;;;;;5034777;28;20061;-71
2021/09/12 00:13:32;;;;;;;30.27;23.27;;;15.80;79.40;;;;;;5035744;28;20030;-71
2021/09/12 00:15:58;;;;;;;31.75;24.67;;;15.80;79.60;;;;;;5035731;28;20052;-72
2021/09/12 00:18:23;;;;;;;31.60;23.85;;;15.70;79.90;;;;;;5034895;28;20365;-72
2021/09/12 00:20:49;;;;;;;31.98;23.33;;;15.60;80.20;;;;;;5055304;28;20463;-71
2021/09/12 00:23:15;;;;;;;30.38;23.83;;;15.60;80.30;;;;;;5054375;28;20032;-71
2021/09/12 00:25:41;;;;;;;30.25;23.27;;;15.50;80.30;;;;;;5054482;28;20474;-70
2021/09/12 00:28:07;;;;;;;30.63;22.90;;;15.50;80.50;;;;;;5054458;28;20025;-71
2021/09/12 00:30:33;;;;;;;31.25;23.42;;;15.40;80.60;;;;;;5054123;28;20029;-71
2021/09/12 00:32:59;;;;;;;32.22;23.70;;;15.40;81.30;;;;;;5053909;28;20056;-71
2021/09/12 00:35:24;;;;;;;31.90;23.88;;;15.40;80.70;;;;;;5055060;28;20024;-72
2021/09/12 00:37:50;;;;;;;27.92;23.13;;;15.30;80.80;;;;;;5054366;28;20021;-70
2021/09/12 00:40:19;;;;;;;34.33;24.65;;;15.30;81.60;;;;;;5054154;28;20029;-72
2021/09/12 00:42:45;;;;;;;33.33;23.30;;;15.30;81.10;;;;;;5047132;28;20391;-71
2021/09/12 00:45:11;;;;;;;30.77;23.50;;;15.30;81.20;;;;;;5034061;28;20025;-71
2021/09/12 00:47:37;;;;;;;31.08;24.38;;;15.20;81.20;;;;;;5036430;28;20057;-71
2021/09/12 00:50:03;;;;;;;33.17;24.83;;;15.20;81.40;;;;;;5034463;28;20079;-71
2021/09/12 00:52:33;;;;;;;30.52;24.45;;;15.20;81.60;;;;;;5034589;28;20033;-71
2021/09/12 00:55:01;;;;;;;35.25;26.15;;;15.20;81.50;;;;;;5033677;28;20033;-70
2021/09/12 00:57:27;;;;;;;37.47;25.60;;;15.20;81.60;;;;;;5035303;28;20368;-71
2021/09/12 00:59:54;;;;;;;33.53;24.38;;;15.10;82.00;;;;;;5033269;28;20387;-71
2021/09/12 01:02:20;;;;;;;30.40;23.13;;;15.10;82.20;;;;;;5033503;28;20040;-71
2021/09/12 01:04:46;;;;;;;31.15;24.15;;;15.10;82.10;;;;;;5033904;28;20119;-71
2021/09/12 01:07:12;;;;;;;35.83;25.27;;;15.20;82.20;;;;;;5041085;28;20550;-71
2021/09/12 01:09:39;;;;;;;32.13;24.90;;;15.20;82.40;;;;;;5053614;28;20120;-71
2021/09/12 01:12:08;;;;;;;32.65;24.60;;;15.10;82.30;;;;;;5054750;28;20113;-72
2021/09/12 01:14:34;;;;;;;34.42;24.33;;;15.10;82.40;;;;;;5053344;28;20483;-71
2021/09/12 01:17:00;;;;;;;31.20;24.60;;;15.10;82.50;;;;;;5054852;28;20033;-72
2021/09/12 01:19:27;;;;;;;34.03;24.58;;;15.10;82.30;;;;;;5053135;28;20048;-72
2021/09/12 01:21:58;;;;;;;33.40;25.35;;;15.10;82.20;;;;;;5053136;28;20029;-71
2021/09/12 01:24:28;;;;;;;31.30;25.52;;;15.10;82.30;;;;;;5054237;28;20108;-72
2021/09/12 01:26:54;;;;;;;36.28;25.52;;;15.10;82.30;;;;;;5054320;28;20108;-71
2021/09/12 01:29:19;;;;;;;32.42;25.83;;;15.00;82.40;;;;;;5053123;28;20120;-72
2021/09/12 01:31:45;;;;;;;34.60;27.50;;;15.00;82.60;;;;;;5052992;28;20035;-71
2021/09/12 01:34:11;;;;;;;33.08;25.85;;;15.00;83.10;;;;;;5052890;28;20028;-74
2021/09/12 01:36:37;;;;;;;33.28;26.95;;;14.90;83.40;;;;;;5047576;28;20021;-72
2021/09/12 01:39:04;;;;;;;34.35;25.75;;;14.90;83.30;;;;;;5054071;28;20029;-72
2021/09/12 01:41:30;;;;;;;36.85;26.08;;;14.90;83.30;;;;;;5054140;28;20391;-70
2021/09/12 01:43:58;;;;;;;38.65;27.45;;;14.90;83.40;;;;;;5053896;28;20028;-72
2021/09/12 01:46:25;;;;;;;36.42;26.98;;;14.80;83.30;;;;;;5052713;28;20391;-71
2021/09/12 01:48:53;;;;;;;36.88;26.48;;;14.90;83.40;;;;;;5054150;28;20082;-71
2021/09/12 01:51:18;;;;;;;45.17;29.65;;;14.80;83.30;;;;;;5052727;28;20033;-71
2021/09/12 01:53:46;;;;;;;41.40;28.45;;;14.80;83.30;;;;;;5052712;28;20025;-72
2021/09/12 01:56:12;;;;;;;37.53;27.38;;;14.70;83.40;;;;;;5053930;28;20174;-70
2021/09/12 01:58:38;;;;;;;35.05;26.85;;;14.70;83.40;;;;;;5053752;28;20116;-71
2021/09/12 02:01:04;;;;;;;33.72;26.17;;;14.70;83.70;;;;;;5052386;28;20037;-72
2021/09/12 02:03:30;;;;;;;37.22;26.05;;;14.60;83.60;;;;;;5052301;28;20344;-71
2021/09/12 02:05:56;;;;;;;32.90;25.67;;;14.60;83.60;;;;;;5044328;28;20049;-71
2021/09/12 02:08:22;;;;;;;35.75;29.23;;;14.60;83.80;;;;;;5032468;28;20538;-72
2021/09/12 02:10:48;;;;;;;35.45;28.35;;;14.50;83.60;;;;;;5032582;28;20468;-75
2021/09/12 02:13:14;;;;;;;39.22;26.88;;;14.50;83.90;;;;;;5033912;28;20068;-72
2021/09/12 02:15:40;;;;;;;36.88;27.08;;;14.50;84.10;;;;;;5032340;28;20025;-72
2021/09/12 02:18:05;;;;;;;37.67;25.95;;;14.50;83.80;;;;;;5032343;28;20025;-72
2021/09/12 02:20:31;;;;;;;35.97;25.67;;;14.50;83.70;;;;;;5032318;28;20040;-71
2021/09/12 02:22:57;;;;;;;38.83;25.42;;;14.50;83.50;;;;;;5032435;28;20026;-72
2021/09/12 02:25:23;;;;;;;37.22;26.73;;;14.50;83.40;;;;;;5032134;28;20387;-71
2021/09/12 02:27:48;;;;;;;42.92;28.20;;;14.50;83.50;;;;;;5033764;28;20503;-71
2021/09/12 02:30:15;;;;;;;38.05;27.23;;;14.40;83.40;;;;;;5033319;28;20112;-71
2021/09/12 02:32:40;;;;;;;37.60;27.95;;;14.40;83.70;;;;;;5033479;28;20029;-71
2021/09/12 02:35:07;;;;;;;38.22;28.88;;;14.40;83.80;;;;;;5032102;28;20021;-71
2021/09/12 02:37:33;;;;;;;38.35;27.73;;;14.40;84.10;;;;;;5032229;28;20075;-72
2021/09/12 02:39:59;;;;;;;38.35;28.38;;;14.40;84.10;;;;;;5032192;28;20029;-71
2021/09/12 02:42:24;;;;;;;39.25;28.00;;;14.30;84.70;;;;;;5033562;28;20384;-71
2021/09/12 02:44:50;;;;;;;38.75;26.67;;;14.30;84.80;;;;;;5032284;28;20034;-71
2021/09/12 02:47:16;;;;;;;40.25;30.10;;;14.30;84.50;;;;;;5032058;28;20464;-70
2021/09/12 02:49:41;;;;;;;36.97;28.67;;;14.30;85.20;;;;;;5033435;28;20423;-71
2021/09/12 02:52:07;;;;;;;36.38;28.63;;;14.30;85.60;;;;;;5032132;28;20120;-71
2021/09/12 02:54:33;;;;;;;32.85;26.75;;;14.30;85.30;;;;;;5031812;28;20484;-72
2021/09/12 02:56:59;;;;;;;34.33;27.52;;;14.20;85.10;;;;;;5032458;28;20458;-71
2021/09/12 02:59:24;;;;;;;34.90;27.23;;;14.20;85.20;;;;;;5031883;28;20117;-71
2021/09/12 03:01:50;;;;;;;34.55;28.45;;;14.10;85.50;;;;;;5031911;28;20038;-71
2021/09/12 03:04:16;;;;;;;39.50;28.70;;;14.10;85.60;;;;;;5031885;28;20080;-70
2021/09/12 03:06:42;;;;;;;39.83;27.95;;;14.10;85.70;;;;;;5032010;28;20083;-71
2021/09/12 03:09:07;;;;;;;40.92;26.85;;;14.10;85.70;;;;;;5031962;28;20076;-73
2021/09/12 03:11:33;;;;;;;39.28;28.35;;;14.10;86.00;;;;;;5032490;28;20392;-70
2021/09/12 03:13:59;;;;;;;43.90;31.58;;;14.00;86.00;;;;;;5031839;28;20029;-71
2021/09/12 03:16:24;;;;;;;38.38;29.65;;;14.10;85.80;;;;;;5031987;28;20022;-71
2021/09/12 03:18:51;;;;;;;38.88;30.63;;;14.00;86.10;;;;;;5033050;28;20022;-71
2021/09/12 03:21:17;;;;;;;45.65;32.45;;;14.00;87.10;;;;;;5035590;28;20360;-71
2021/09/12 03:23:43;;;;;;;41.05;30.00;;;14.10;88.00;;;;;;5035537;28;20029;-71
2021/09/12 03:26:09;;;;;;;40.78;29.55;;;14.00;87.60;;;;;;5037248;28;20030;-70
2021/09/12 03:28:35;;;;;;;40.40;30.25;;;14.00;87.30;;;;;;5034780;28;20035;-71
2021/09/12 03:31:01;;;;;;;44.90;33.80;;;14.00;87.10;;;;;;5035402;28;20037;-71
2021/09/12 03:33:27;;;;;;;38.20;29.55;;;13.90;87.20;;;;;;5035176;28;20030;-73
2021/09/12 03:35:53;;;;;;;41.97;30.33;;;13.90;87.30;;;;;;5035010;28;20491;-70
2021/09/12 03:38:19;;;;;;;44.13;31.02;;;13.90;87.40;;;;;;5035259;28;20029;-71
2021/09/12 03:40:44;;;;;;;48.88;31.58;;;13.90;87.40;;;;;;5035014;28;20452;-71
2021/09/12 03:43:10;;;;;;;41.38;31.05;;;13.90;87.40;;;;;;5035218;28;20033;-71
2021/09/12 03:45:36;;;;;;;53.92;35.83;;;14.00;87.70;;;;;;5035330;28;20075;-71
2021/09/12 03:48:02;;;;;;;48.90;31.52;;;14.00;87.70;;;;;;5034864;28;20122;-71
2021/09/12 03:50:28;;;;;;;44.65;30.13;;;14.20;87.50;;;;;;5036317;28;20029;-74
2021/09/12 03:52:54;;;;;;;38.97;28.77;;;14.40;87.20;;;;;;5034862;28;20387;-71
2021/09/12 03:55:20;;;;;;;41.90;28.40;;;14.70;86.30;;;;;;5036177;28;20022;-71
2021/09/12 03:57:46;;;;;;;40.50;27.48;;;15.00;85.30;;;;;;5034225;28;20555;-71
2021/09/12 04:00:13;;;;;;;37.30;26.75;;;15.30;84.40;;;;;;5034584;28;20395;-72
2021/09/12 04:02:39;;;;;;;38.08;26.45;;;15.70;83.40;;;;;;5051536;28;20045;-72
2021/09/12 04:05:05;;;;;;;34.40;25.70;;;16.00;81.80;;;;;;5034567;28;20136;-72
2021/09/12 04:07:31;;;;;;;39.05;26.35;;;16.20;81.10;;;;;;5035533;28;20033;-72
2021/09/12 04:09:56;;;;;;;42.90;27.42;;;16.50;80.00;;;;;;5034393;28;20164;-72
2021/09/12 04:12:22;;;;;;;34.83;26.08;;;16.90;78.80;;;;;;5034418;28;20440;-72
2021/09/12 04:14:48;;;;;;;36.65;25.58;;;17.10;77.60;;;;;;5034554;28;20042;-72
2021/09/12 04:17:15;;;;;;;38.53;25.90;;;17.20;76.80;;;;;;5034327;28;20052;-72
2021/09/12 04:19:40;;;;;;;36.28;24.25;;;17.50;76.10;;;;;;5034446;28;20022;-72
2021/09/12 04:22:06;;;;;;;43.53;26.35;;;17.70;75.60;;;;;;5045767;28;20048;-72
2021/09/12 04:24:32;;;;;;;33.05;24.63;;;18.10;74.70;;;;;;5043492;28;20033;-71
2021/09/12 04:26:57;;;;;;;34.13;23.95;;;18.50;73.90;;;;;;5035671;28;20026;-72
2021/09/12 04:29:23;;;;;;;35.10;24.80;;;18.90;72.90;;;;;;5033809;28;20037;-71
2021/09/12 04:31:49;;;;;;;33.95;24.05;;;19.30;71.70;;;;;;5035281;28;20030;-72
2021/09/12 04:34:15;;;;;;;34.22;25.48;;;19.60;70.60;;;;;;5033886;28;20030;-72
2021/09/12 04:36:41;;;;;;;34.25;24.70;;;20.00;69.50;;;;;;5034109;28;20109;-72
2021/09/12 04:39:07;;;;;;;35.97;24.13;;;20.30;68.60;;;;;;5034042;28;20043;-73
2021/09/12 04:41:33;;;;;;;31.55;24.73;;;20.60;67.80;;;;;;5033963;28;20472;-71
2021/09/12 04:43:59;;;;;;;31.65;22.65;;;20.90;66.90;;;;;;5035121;28;20025;-73
2021/09/12 04:46:24;;;;;;;33.88;23.25;;;21.10;66.10;;;;;;5033944;28;20025;-72
2021/09/12 04:48:50;;;;;;;29.10;21.83;;;21.40;65.30;;;;;;5033866;28;20091;-71
2021/09/12 04:51:16;;;;;;;35.47;21.90;;;21.60;64.70;;;;;;5041073;28;20043;-73
2021/09/12 04:53:42;;;;;;;32.72;22.10;;;21.90;64.40;;;;;;5053608;28;20058;-72
2021/09/12 04:56:07;;;;;;;30.38;23.63;;;22.20;63.70;;;;;;5053699;28;20029;-73
2021/09/12 04:58:33;;;;;;;31.42;21.95;;;22.50;62.80;;;;;;5054706;28;20029;-72
2021/09/12 05:01:00;;;;;;;29.30;21.20;;;22.80;62.30;;;;;;5053369;28;20522;-73
2021/09/12 05:03:25;;;;;;;30.65;22.60;;;23.10;62.30;;;;;;5054475;28;20074;-73
2021/09/12 05:05:51;;;;;;;30.67;21.85;;;23.50;60.60;;;;;;5053522;28;20483;-72
2021/09/12 05:08:17;;;;;;;34.05;23.23;;;23.80;60.10;;;;;;5054938;28;20029;-73
2021/09/12 05:10:43;;;;;;;31.55;22.67;;;24.00;59.50;;;;;;5054942;28;20029;-73
2021/09/12 05:13:08;;;;;;;31.05;21.90;;;24.30;59.00;;;;;;5054707;28;20033;-73
2021/09/12 05:15:34;;;;;;;33.10;21.30;;;24.50;58.60;;;;;;5054598;28;20581;-73
2021/09/12 05:18:00;;;;;;;30.48;20.85;;;24.80;58.10;;;;;;5054410;28;20028;-73
2021/09/12 05:20:26;;;;;;;32.55;20.60;;;25.10;57.70;;;;;;5045046;28;20033;-73
2021/09/12 05:22:51;;;;;;;28.98;22.02;;;25.50;57.30;;;;;;5033888;28;20029;-73
2021/09/12 05:25:17;;;;;;;26.92;20.67;;;25.90;56.30;;;;;;5033304;28;20028;-73
2021/09/12 05:27:43;;;;;;;28.05;21.45;;;26.10;55.80;;;;;;5033389;28;20064;-73
2021/09/12 05:30:09;;;;;;;37.00;21.38;;;26.30;55.40;;;;;;5033019;28;20040;-73
2021/09/12 05:32:35;;;;;;;31.73;22.48;;;26.60;55.10;;;;;;5034022;28;20116;-74
2021/09/12 05:35:02;;;;;;;31.63;20.83;;;26.90;54.70;;;;;;5033182;28;20025;-72
2021/09/12 05:37:27;;;;;;;25.40;20.45;;;27.20;54.10;;;;;;5033003;28;20108;-75
2021/09/12 05:39:53;;;;;;;28.30;20.08;;;27.60;53.80;;;;;;5032839;28;20125;-73
2021/09/12 05:42:19;;;;;;;22.30;18.00;;;27.70;53.40;;;;;;5032228;28;20033;-73
2021/09/12 05:44:45;;;;;;;20.92;17.90;;;27.80;53.20;;;;;;5032085;28;20471;-73
2021/09/12 05:47:11;;;;;;;24.90;17.30;;;27.90;53.10;;;;;;5032615;28;20030;-72
2021/09/12 05:49:37;;;;;;;19.70;16.20;;;28.10;52.90;;;;;;5032517;28;20022;-73
2021/09/12 05:52:03;;;;;;;23.35;17.02;;;28.40;52.60;;;;;;5032469;28;20037;-73
2021/09/12 05:54:29;;;;;;;21.33;16.55;;;28.70;52.20;;;;;;5032148;28;20434;-73
2021/09/12 05:56:54;;;;;;;20.65;16.80;;;29.00;51.80;;;;;;5032263;28;20029;-73
2021/09/12 05:59:20;;;;;;;20.88;16.73;;;29.10;51.40;;;;;;5032473;28;20026;-73
2021/09/12 06:01:46;;;;;;;21.63;16.38;;;29.20;51.10;;;;;;5031870;28;20034;-74
2021/09/12 06:04:11;;;;;;;21.77;16.77;;;29.40;50.40;;;;;;5032590;28;20095;-72
2021/09/12 06:06:37;;;;;;;24.40;16.92;;;29.60;50.20;;;;;;5032606;28;20467;-73
2021/09/12 06:09:03;;;;;;;21.48;16.65;;;29.90;49.70;;;;;;5033788;28;20032;-74
2021/09/12 06:11:29;;;;;;;22.05;18.38;;;30.00;49.30;;;;;;5032264;28;20041;-74
2021/09/12 06:13:55;;;;;;;22.27;18.20;;;30.20;49.00;;;;;;5032267;28;20029;-74
2021/09/12 06:16:20;;;;;;;24.52;17.42;;;30.50;48.70;;;;;;5033537;28;20048;-74
2021/09/12 06:18:46;;;;;;;25.00;17.85;;;30.60;48.00;;;;;;5032258;28;20028;-74
2021/09/12 06:21:12;;;;;;;23.20;17.40;;;30.70;47.80;;;;;;5033939;28;20037;-72
2021/09/12 06:23:38;;;;;;;22.20;18.10;;;30.80;47.60;;;;;;5033034;28;20036;-73
2021/09/12 06:26:04;;;;;;;22.65;16.50;;;30.90;47.10;;;;;;5032568;28;20029;-75
2021/09/12 06:28:30;;;;;;;21.80;17.48;;;31.10;46.70;;;;;;5033351;28;20089;-73
2021/09/12 06:30:55;;;;;;;21.80;17.00;;;31.10;46.20;;;;;;5031998;28;20116;-73
2021/09/12 06:33:21;;;;;;;21.42;16.42;;;31.30;46.30;;;;;;5033255;28;20053;-73
2021/09/12 06:35:47;;;;;;;24.05;17.50;;;31.60;46.60;;;;;;5031790;28;20428;-76
2021/09/12 06:38:13;;;;;;;26.10;19.08;;;31.80;46.30;;;;;;5032077;28;20075;-71
2021/09/12 06:40:38;;;;;;;21.60;16.83;;;32.20;45.90;;;;;;5032209;28;20048;-74
2021/09/12 06:43:04;;;;;;;23.40;16.40;;;32.40;45.80;;;;;;5031617;28;20460;-76
2021/09/12 06:45:30;;;;;;;20.63;16.48;;;32.50;45.60;;;;;;5032246;28;20029;-72
2021/09/12 06:47:56;;;;;;;21.55;16.23;;;32.50;45.70;;;;;;5032119;28;20508;-73
2021/09/12 06:50:23;;;;;;;21.88;15.80;;;32.60;45.80;;;;;;5032411;28;20030;-73
2021/09/12 06:52:50;;;;;;;20.95;16.02;;;32.60;46.00;;;;;;5033399;28;20033;-73
2021/09/12 06:55:16;;;;;;;27.48;17.73;;;32.70;45.20;;;;;;5036168;28;20039;-72
2021/09/12 06:57:42;;;;;;;21.73;16.42;;;32.70;45.00;;;;;;5037291;28;20026;-74
2021/09/12 07:00:09;;;;;;;19.92;15.43;;;32.80;44.60;;;;;;5035677;28;20029;-73
2021/09/12 07:02:36;;;;;;;18.02;15.30;;;32.90;44.60;;;;;;5035517;28;20041;-74
2021/09/12 07:05:03;;;;;;;20.70;16.15;;;32.90;44.60;;;;;;5037180;28;20049;-74
2021/09/12 07:07:29;;;;;;;19.38;14.82;;;32.90;44.60;;;;;;5036896;28;20051;-71
2021/09/12 07:09:55;;;;;;;21.77;15.65;;;32.90;44.80;;;;;;5035542;28;20030;-73
2021/09/12 07:12:20;;;;;;;22.83;15.32;;;33.10;44.60;;;;;;5036897;28;20030;-74
2021/09/12 07:14:46;;;;;;;27.10;17.73;;;33.20;44.60;;;;;;5036495;28;20036;-74
2021/09/12 07:17:13;;;;;;;22.80;15.98;;;33.40;44.50;;;;;;5036843;28;20052;-73
2021/09/12 07:19:39;;;;;;;20.08;15.55;;;33.60;44.40;;;;;;5037162;28;20072;-73
2021/09/12 07:22:05;;;;;;;24.30;21.67;;;33.50;44.00;;;;;;5036591;28;20037;-73
2021/09/12 07:24:30;;;;;;;26.48;16.10;;;33.50;44.10;;;;;;5035771;28;20026;-73
2021/09/12 07:26:56;;;;;;;20.17;14.40;;;33.60;44.40;;;;;;5036833;28;20096;-73
2021/09/12 07:29:22;;;;;;;20.90;14.73;;;33.80;44.30;;;;;;5036288;28;20030;-74
2021/09/12 07:31:48;;;;;;;20.55;15.20;;;33.80;43.70;;;;;;5036640;28;20029;-72
2021/09/12 07:34:14;;;;;;;19.98;14.32;;;34.00;43.60;;;;;;5035349;28;20026;-73
2021/09/12 07:36:39;;;;;;;22.42;15.38;;;34.10;43.50;;;;;;5035153;28;20432;-73
2021/09/12 07:39:05;;;;;;;19.85;15.30;;;34.30;43.40;;;;;;5036358;28;20037;-73
2021/09/12 07:41:31;;;;;;;20.65;15.70;;;34.40;43.20;;;;;;5036410;28;20060;-73
2021/09/12 07:43:57;;;;;;;22.05;14.90;;;34.50;43.20;;;;;;5035657;28;20033;-74
2021/09/12 07:46:22;;;;;;;20.10;15.95;;;34.60;43.00;;;;;;5035141;28;20107;-74
2021/09/12 07:48:48;;;;;;;21.90;16.60;;;34.80;43.10;;;;;;5050628;28;20076;-74
2021/09/12 07:51:14;;;;;;;18.73;15.13;;;34.80;42.70;;;;;;5054988;28;20033;-74
2021/09/12 07:53:40;;;;;;;18.05;14.75;;;34.80;42.70;;;;;;5054953;28;20040;-74
2021/09/12 07:56:05;;;;;;;16.23;14.10;;;34.80;42.70;;;;;;5054580;28;20395;-73
2021/09/12 07:58:31;;;;;;;20.67;14.60;;;34.70;42.40;;;;;;5054825;28;20028;-73
2021/09/12 08:00:57;;;;;;;17.98;13.93;;;34.70;42.30;;;;;;5054766;28;20383;-74
2021/09/12 08:03:22;;;;;;;17.98;12.95;;;34.60;42.00;;;;;;5053125;28;20039;-74
2021/09/12 08:05:48;;;;;;;16.30;12.55;;;34.70;41.70;;;;;;5053898;28;20064;-72
2021/09/12 08:08:14;;;;;;;17.33;12.57;;;34.90;41.90;;;;;;5055557;28;20036;-74
2021/09/12 08:10:39;;;;;;;20.15;12.57;;;35.00;41.40;;;;;;5054766;28;20093;-74
2021/09/12 08:13:05;;;;;;;17.08;13.32;;;35.10;41.10;;;;;;5054255;28;20036;-74
2021/09/12 08:15:31;;;;;;;17.67;12.13;;;35.30;40.70;;;;;;5054716;28;20025;-74
2021/09/12 08:17:56;;;;;;;17.20;12.00;;;35.40;40.30;;;;;;5054758;28;20028;-73
2021/09/12 08:20:22;;;;;;;17.55;13.13;;;35.40;40.50;;;;;;5054525;28;20028;-75
2021/09/12 08:22:48;;;;;;;20.02;12.27;;;35.40;39.80;;;;;;5040161;28;20483;-71
2021/09/12 08:25:14;;;;;;;17.38;12.52;;;35.50;40.00;;;;;;5034630;28;20041;-74
2021/09/12 08:27:40;;;;;;;15.32;11.65;;;35.50;39.90;;;;;;5034353;28;20112;-74
2021/09/12 08:30:07;;;;;;;17.02;12.63;;;35.50;39.80;;;;;;5034293;28;20055;-74
2021/09/12 08:32:33;;;;;;;20.23;11.30;;;35.60;40.00;;;;;;5034280;28;20034;-74
2021/09/12 08:34:58;;;;;;;16.75;11.20;;;35.50;39.50;;;;;;5034182;28;20431;-74
2021/09/12 08:37:24;;;;;;;16.23;10.82;;;35.50;39.40;;;;;;5034176;28;20021;-74
2021/09/12 08:39:50;;;;;;;17.00;12.25;;;35.60;39.40;;;;;;5033899;28;20025;-73
2021/09/12 08:42:17;;;;;;;15.85;12.80;;;35.60;39.00;;;;;;5038200;28;20045;-74
2021/09/12 08:44:49;;;;;;;21.77;12.20;;;35.70;38.90;;;;;;5053863;28;20076;-74
2021/09/12 08:47:15;;;;;;;24.25;13.57;;;35.80;39.20;;;;;;5053819;28;20124;-74
2021/09/12 08:49:42;;;;;;;18.27;13.57;;;35.80;38.90;;;;;;5053849;28;20433;-73
2021/09/12 08:52:09;;;;;;;18.88;14.05;;;35.90;38.70;;;;;;5053634;28;20025;-74
2021/09/12 08:54:35;;;;;;;18.67;13.52;;;35.90;38.10;;;;;;5053641;28;20056;-73
2021/09/12 08:57:01;;;;;;;18.63;12.93;;;35.70;37.90;;;;;;5053644;28;20063;-74
2021/09/12 08:59:35;;;;;;;17.85;12.98;;;35.70;37.90;;;;;;5054094;28;20025;-75
2021/09/12 09:02:04;;;;;;;20.05;13.85;;;35.60;37.90;;;;;;5053613;28;20074;-74
2021/09/12 09:04:33;;;;;;;18.92;13.65;;;35.70;37.80;;;;;;5053294;28;20132;-74
2021/09/12 09:07:04;;;;;;;18.83;12.57;;;35.80;37.60;;;;;;5046669;28;20025;-73
2021/09/12 09:09:47;;;;;;;17.58;11.50;;;35.90;37.30;;;;;;5033579;28;20033;-73
2021/09/12 09:12:27;;;;;;;12.98;10.00;;;36.00;37.40;;;;;;5034113;28;20030;-74
2021/09/12 09:15:11;;;;;;;16.50;9.38;;;36.10;37.50;;;;;;5033549;28;20029;-74
2021/09/12 09:17:46;;;;;;;10.02;6.90;;;36.20;36.90;;;;;;5034711;28;20021;-73
2021/09/12 09:20:26;;;;;;;13.93;7.55;;;36.30;36.80;;;;;;5034438;28;20409;-72
2021/09/12 09:22:52;;;;;;;8.43;5.80;;;36.60;36.20;;;;;;5033619;28;20041;-73
2021/09/12 09:25:25;;;;;;;9.27;5.53;;;36.70;35.60;;;;;;5034403;28;20440;-73
2021/09/12 09:28:00;;;;;;;7.75;4.65;;;36.80;34.30;;;;;;5033070;28;20021;-72
2021/09/12 09:30:28;;;;;;;10.45;5.75;;;37.00;34.60;;;;;;5033482;28;20376;-73
2021/09/12 09:33:22;;;;;;;12.73;5.20;;;37.00;33.40;;;;;;5033020;28;20640;-73
2021/09/12 09:36:07;;;;;;;11.77;5.83;;;37.00;34.10;;;;;;5032224;28;20101;-73
2021/09/12 09:38:38;;;;;;;10.35;5.80;;;37.00;33.80;;;;;;5038563;28;20276;-74
2021/09/12 09:41:10;;;;;;;12.55;6.90;;;37.00;33.20;;;;;;5054312;28;20553;-73
2021/09/12 09:43:43;;;;;;;11.05;6.13;;;37.00;33.10;;;;;;5052848;28;20021;-73
2021/09/12 09:46:28;;;;;;;12.43;6.75;;;37.00;33.40;;;;;;5053754;28;20039;-73
2021/09/12 09:48:54;;;;;;;11.07;6.05;;;37.10;34.00;;;;;;5052664;28;20072;-73
2021/09/12 09:51:22;;;;;;;11.02;6.32;;;37.20;33.70;;;;;;5052638;28;20037;-73
2021/09/12 09:53:48;;;;;;;11.30;6.20;;;37.30;34.10;;;;;;5052864;28;20486;-72
2021/09/12 09:56:14;;;;;;;12.25;6.72;;;37.40;33.50;;;;;;5052446;28;20139;-73
2021/09/12 09:58:43;;;;;;;6.95;5.68;;;37.30;33.50;;;;;;5053672;28;20073;-73
2021/09/12 10:01:08;;;;;;;10.32;6.20;;;37.40;33.10;;;;;;5052265;28;20033;-74
2021/09/12 10:03:35;;;;;;;11.48;6.30;;;37.30;33.30;;;;;;5052336;28;20029;-74
2021/09/12 10:06:01;;;;;;;10.55;6.60;;;37.40;33.30;;;;;;5044356;28;20102;-74
2021/09/12 10:08:27;;;;;;;11.63;6.97;;;37.40;33.40;;;;;;5033721;28;20021;-75
2021/09/12 10:10:54;;;;;;;9.75;6.15;;;37.60;33.30;;;;;;5033759;28;20045;-70
2021/09/12 10:13:23;;;;;;;15.85;6.97;;;37.60;33.10;;;;;;5032290;28;20025;-73
2021/09/12 10:15:53;;;;;;;11.90;6.35;;;37.80;33.10;;;;;;5032448;28;20432;-74
2021/09/12 10:18:28;;;;;;;10.75;6.40;;;37.70;32.60;;;;;;5032410;28;20021;-74
2021/09/12 10:20:54;;;;;;;13.30;6.85;;;37.50;33.40;;;;;;5032346;28;20124;-74
2021/09/12 10:23:24;;;;;;;8.75;5.60;;;37.30;33.00;;;;;;5032241;28;20029;-74
2021/09/12 10:25:54;;;;;;;11.60;8.07;;;37.00;32.80;;;;;;5032127;28;20468;-72
2021/09/12 10:28:34;;;;;;;10.98;6.88;;;36.70;32.70;;;;;;5038005;28;20025;-74
2021/09/12 10:31:20;;;;;;;9.30;6.80;;;36.50;32.80;;;;;;5039170;28;20069;-74
2021/09/12 10:34:03;;;;;;;8.52;6.07;;;36.40;33.10;;;;;;5039647;28;20033;-74
2021/09/12 10:36:29;;;;;;;11.55;5.40;;;36.00;33.40;;;;;;5038784;28;20033;-74
2021/09/12 10:38:54;;;;;;;11.85;5.93;;;35.80;33.00;;;;;;5038560;28;20022;-77
2021/09/12 10:41:20;;;;;;;7.07;5.63;;;35.80;33.60;;;;;;5039007;28;20044;-74
2021/09/12 10:43:50;;;;;;;9.55;5.80;;;35.80;33.30;;;;;;5038872;28;20148;-74
2021/09/12 10:46:19;;;;;;;7.35;4.93;;;35.80;33.70;;;;;;5040228;28;20152;-74
2021/09/12 10:49:02;;;;;;;9.15;5.35;;;35.70;33.70;;;;;;5038750;28;20035;-74
2021/09/12 10:51:30;;;;;;;9.50;6.13;;;35.80;33.60;;;;;;5038646;28;20462;-74
2021/09/12 10:53:58;;;;;;;10.27;5.35;;;35.80;33.60;;;;;;5038729;28;20061;-73
2021/09/12 10:56:29;;;;;;;7.72;4.57;;;35.80;33.10;;;;;;5038607;28;20041;-73
2021/09/12 10:59:12;;;;;;;6.32;4.68;;;35.60;33.00;;;;;;5038020;28;20033;-74
2021/09/12 11:01:45;;;;;;;6.93;4.25;;;35.40;32.50;;;;;;5038788;28;20033;-73
2021/09/12 11:04:12;;;;;;;6.35;4.07;;;35.20;32.50;;;;;;5038493;28;20467;-74
2021/09/12 11:06:42;;;;;;;9.38;4.28;;;35.10;32.90;;;;;;5039995;28;20074;-74
2021/09/12 11:09:22;;;;;;;7.95;4.18;;;35.10;32.70;;;;;;5039853;28;20032;-70
2021/09/12 11:11:52;;;;;;;8.73;4.00;;;35.10;32.30;;;;;;5039878;28;20116;-72
2021/09/12 11:14:19;;;;;;;9.18;7.43;;;35.00;32.40;;;;;;5038393;28;20094;-73
2021/09/12 11:16:47;;;;;;;7.72;4.15;;;34.90;32.30;;;;;;5039782;28;20053;-76
2021/09/12 11:19:13;;;;;;;8.70;4.40;;;34.90;32.50;;;;;;5039791;28;20156;-73
2021/09/12 11:21:48;;;;;;;8.63;4.38;;;34.80;32.30;;;;;;5038732;28;20447;-72
2021/09/12 11:24:22;;;;;;;6.85;4.50;;;34.90;32.40;;;;;;5038486;28;20030;-73
2021/09/12 11:26:48;;;;;;;7.22;4.50;;;35.00;32.30;;;;;;5038705;28;20039;-71
2021/09/12 11:29:17;;;;;;;7.35;4.72;;;35.20;32.50;;;;;;5043544;28;20452;-73
2021/09/12 11:31:49;;;;;;;8.10;4.22;;;35.20;32.20;;;;;;5041296;28;20418;-69
2021/09/12 11:34:20;;;;;;;10.68;4.30;;;35.40;32.40;;;;;;5039569;28;20087;-72
2021/09/12 11:36:59;;;;;;;6.22;4.20;;;35.60;32.70;;;;;;5053436;28;20459;-72
2021/09/12 11:39:46;;;;;;;7.40;4.43;;;35.80;32.30;;;;;;5035203;28;20037;-72
2021/09/12 11:42:14;;;;;;;8.82;4.80;;;35.90;31.90;;;;;;5035161;28;20487;-72
2021/09/12 11:44:43;;;;;;;8.07;4.75;;;35.90;31.90;;;;;;5035954;28;20044;-72
2021/09/12 11:47:12;;;;;;;5.93;4.20;;;35.90;32.20;;;;;;5035225;28;20555;-72
2021/09/12 11:49:39;;;;;;;6.97;4.30;;;35.80;32.50;;;;;;5037642;28;21216;-72
2021/09/12 11:52:05;;;;;;;9.27;4.70;;;35.60;32.90;;;;;;5054936;28;20052;-72
2021/09/12 11:54:35;;;;;;;10.95;4.63;;;35.40;33.60;;;;;;5054674;28;20104;-72
2021/09/12 11:57:10;;;;;;;9.45;4.60;;;35.40;33.30;;;;;;5036251;28;20021;-71
2021/09/12 11:59:43;;;;;;;7.75;4.30;;;35.20;33.00;;;;;;5036488;28;20494;-71
2021/09/12 12:02:14;;;;;;;7.70;4.68;;;35.00;33.20;;;;;;5034846;28;20036;-69
2021/09/12 12:04:42;;;;;;;8.20;4.63;;;34.80;33.80;;;;;;5034641;28;20049;-71
2021/09/12 12:07:07;;;;;;;7.85;4.80;;;34.60;34.00;;;;;;5036060;28;20092;-71
2021/09/12 12:09:46;;;;;;;8.27;5.32;;;34.30;34.50;;;;;;5034696;28;20026;-72
2021/09/12 12:12:14;;;;;;;9.93;4.75;;;33.90;34.50;;;;;;5035334;28;20060;-70
2021/09/12 12:14:46;;;;;;;11.32;5.07;;;33.60;34.40;;;;;;5034460;28;20124;-72
2021/09/12 12:17:21;;;;;;;9.50;4.93;;;33.20;35.00;;;;;;5036255;28;20384;-71
2021/09/12 12:19:48;;;;;;;13.55;5.50;;;32.90;35.00;;;;;;5034995;28;20028;-73
2021/09/12 12:22:15;;;;;;;7.28;5.47;;;32.60;35.40;;;;;;5053430;28;20037;-71
2021/09/12 12:24:45;;;;;;;9.45;5.47;;;32.20;36.10;;;;;;5055632;28;20036;-71
2021/09/12 12:27:14;;;;;;;12.68;5.68;;;31.90;36.10;;;;;;5055648;28;20028;-72
2021/09/12 12:29:43;;;;;;;8.60;5.15;;;31.60;36.50;;;;;;5055870;28;20025;-71
2021/09/12 12:32:10;;;;;;;10.57;5.50;;;31.40;36.90;;;;;;5055267;28;20029;-71